Time,TemperatureF,DewpointF,PressureIn,WindDirection,WindDirectionDegrees,WindSpeedMPH,WindSpeedGustMPH,Humidity,HourlyPrecipIn,Conditions,Clouds,dailyrainin,SoftwareType,DateUTC
2013-05-20 00:02:00,80.0,66.0,-100.00,South,190,0.0,0.0,63,-99.99,,,-99.99,,2013-05-20 05:02:00,
2013-05-20 00:12:00,75.0,64.0,-100.00,West,265,0.0,0.0,67,-99.99,,,-99.99,,2013-05-20 05:12:00,
2013-05-20 00:22:00,72.0,63.0,-100.00,West,270,0.0,0.0,74,-99.99,,,-99.99,,2013-05-20 05:22:00,
2013-05-20 00:32:00,72.0,63.0,-100.00,West,270,0.0,0.0,74,-99.99,,,-99.99,,2013-05-20 05:32:00,
2013-05-20 00:42:00,70.0,63.0,-100.00,WSW,250,0.0,0.0,78,-99.99,,,-99.99,,2013-05-20 05:42:00,
2013-05-20 00:52:00,69.0,63.0,-100.00,NNW,330,0.0,0.0,81,-99.99,,,-99.99,,2013-05-20 05:52:00,
2013-05-20 01:01:00,69.0,63.0,-100.00,NNW,330,0.0,0.0,81,-99.99,,,-99.99,,2013-05-20 06:01:00,
2013-05-20 01:11:00,68.0,63.0,-100.00,North,0,0.0,0.0,84,-99.99,,,-99.99,,2013-05-20 06:11:00,
2013-05-20 01:21:00,68.0,64.0,-100.00,ENE,65,0.0,0.0,87,-99.99,,,-99.99,,2013-05-20 06:21:00,
2013-05-20 01:32:00,68.0,64.0,-100.00,ENE,65,0.0,0.0,87,-99.99,,,-99.99,,2013-05-20 06:32:00,
2013-05-20 01:42:00,67.0,64.0,-100.00,NNW,330,0.0,0.0,90,-99.99,,,-99.99,,2013-05-20 06:42:00,
2013-05-20 01:52:00,67.0,65.0,-100.00,WNW,295,0.0,0.0,93,-99.99,,,-99.99,,2013-05-20 06:52:00,
2013-05-20 02:02:00,67.0,65.0,-100.00,WNW,295,0.0,0.0,93,-99.99,,,-99.99,,2013-05-20 07:02:00,
2013-05-20 02:12:00,67.0,65.0,-100.00,West,270,0.0,0.0,93,-99.99,,,-99.99,,2013-05-20 07:12:00,
2013-05-20 02:21:00,65.0,65.0,-100.00,West,265,0.0,0.0,99,-99.99,,,-99.99,,2013-05-20 07:21:00,
2013-05-20 02:32:00,65.0,65.0,-100.00,West,265,0.0,0.0,99,-99.99,,,-99.99,,2013-05-20 07:32:00,
2013-05-20 02:42:00,64.0,64.0,-100.00,WSW,255,0.0,0.0,99,-99.99,,,-99.99,,2013-05-20 07:42:00,
2013-05-20 02:52:00,64.0,63.0,-100.00,West,280,0.0,0.0,99,-99.99,,,-99.99,,2013-05-20 07:52:00,
2013-05-20 03:01:00,64.0,63.0,-100.00,West,280,0.0,0.0,99,-99.99,,,-99.99,,2013-05-20 08:01:00,
2013-05-20 03:11:00,63.0,63.0,-100.00,West,265,0.0,0.0,99,-99.99,,,-99.99,,2013-05-20 08:11:00,
2013-05-20 03:21:00,63.0,63.0,-100.00,SE,145,0.0,0.0,99,-99.99,,,-99.99,,2013-05-20 08:21:00,
2013-05-20 03:32:00,63.0,63.0,-100.00,SE,145,0.0,0.0,99,-99.99,,,-99.99,,2013-05-20 08:32:00,
2013-05-20 03:41:00,63.0,63.0,-100.00,South,185,0.0,0.0,99,-99.99,,,-99.99,,2013-05-20 08:41:00,
2013-05-20 03:52:00,62.0,62.0,-100.00,South,185,0.0,0.0,99,-99.99,,,-99.99,,2013-05-20 08:52:00,
2013-05-20 04:00:00,62.0,62.0,-100.00,SW,225,0.0,0.0,99,-99.99,,,-99.99,,2013-05-20 09:00:00,
2013-05-20 04:02:00,62.0,62.0,-100.00,South,185,0.0,0.0,99,-99.99,,,-99.99,,2013-05-20 09:02:00,
2013-05-20 04:12:00,63.0,62.0,-100.00,SW,215,0.0,0.0,99,-99.99,,,-99.99,,2013-05-20 09:12:00,
2013-05-20 04:21:00,63.0,62.0,-100.00,SW,235,0.0,0.0,99,-99.99,,,-99.99,,2013-05-20 09:21:00,
2013-05-20 04:32:00,63.0,62.0,-100.00,SW,235,0.0,0.0,99,-99.99,,,-99.99,,2013-05-20 09:32:00,
2013-05-20 04:43:00,62.0,62.0,-100.00,SW,225,0.0,0.0,99,-99.99,,,-99.99,,2013-05-20 09:43:00,
2013-05-20 04:53:00,62.0,62.0,-100.00,SW,225,0.0,0.0,99,-99.99,,,-99.99,,2013-05-20 09:53:00,
2013-05-20 07:11:00,62.0,62.0,-100.00,SW,230,0.0,0.0,99,-99.99,,,-99.99,,2013-05-20 12:11:00,
2013-05-20 07:21:00,63.0,62.0,-100.00,South,190,0.0,0.0,99,-99.99,,,-99.99,,2013-05-20 12:21:00,
2013-05-20 07:32:00,63.0,62.0,-100.00,South,190,0.0,0.0,99,-99.99,,,-99.99,,2013-05-20 12:32:00,
2013-05-20 07:41:00,62.0,62.0,-100.00,South,180,0.0,0.0,99,-99.99,,,-99.99,,2013-05-20 12:41:00,
2013-05-20 07:52:00,62.0,62.0,-100.00,South,190,0.0,0.0,99,-99.99,,,-99.99,,2013-05-20 12:52:00,
2013-05-20 08:01:00,62.0,62.0,-100.00,South,190,0.0,0.0,99,-99.99,,,-99.99,,2013-05-20 13:01:00,
2013-05-20 08:11:00,63.0,62.0,-100.00,South,190,0.0,0.0,99,-99.99,,,-99.99,,2013-05-20 13:11:00,
2013-05-20 08:22:00,63.0,63.0,-100.00,South,175,0.0,0.0,99,-99.99,,,-99.99,,2013-05-20 13:22:00,
2013-05-20 08:31:00,63.0,63.0,-100.00,South,175,0.0,0.0,99,-99.99,,,-99.99,,2013-05-20 13:31:00,
2013-05-20 08:41:00,63.0,63.0,-100.00,South,175,0.0,0.0,99,-99.99,,,-99.99,,2013-05-20 13:41:00,
2013-05-20 08:52:00,67.0,65.0,-100.00,SSW,210,0.0,0.0,94,-99.99,,,-99.99,,2013-05-20 13:52:00,
2013-05-20 09:01:00,67.0,65.0,-100.00,SSW,210,0.0,0.0,94,-99.99,,,-99.99,,2013-05-20 14:01:00,
2013-05-20 09:11:00,68.0,64.0,-100.00,South,185,0.0,0.0,88,-99.99,,,-99.99,,2013-05-20 14:11:00,
2013-05-20 09:22:00,69.0,65.0,-100.00,South,185,0.0,0.0,85,-99.99,,,-99.99,,2013-05-20 14:22:00,
2013-05-20 09:32:00,69.0,65.0,-100.00,South,185,0.0,0.0,85,-99.99,,,-99.99,,2013-05-20 14:32:00,
2013-05-20 09:42:00,70.0,65.0,-100.00,South,175,0.0,0.0,84,-99.99,,,-99.99,,2013-05-20 14:42:00,
2013-05-20 09:52:00,69.0,64.0,-100.00,South,190,0.0,0.0,84,-99.99,,,-99.99,,2013-05-20 14:52:00,
2013-05-20 10:01:00,69.0,64.0,-100.00,South,190,0.0,0.0,84,-99.99,,,-99.99,,2013-05-20 15:01:00,
2013-05-20 10:11:00,69.0,64.0,-100.00,South,190,0.0,0.0,84,-99.99,,,-99.99,,2013-05-20 15:11:00,
2013-05-20 10:21:00,70.0,64.0,-100.00,South,185,0.0,0.0,82,-99.99,,,-99.99,,2013-05-20 15:21:00,
2013-05-20 10:33:00,70.0,64.0,-100.00,South,185,0.0,0.0,82,-99.99,,,-99.99,,2013-05-20 15:33:00,
2013-05-20 10:42:00,72.0,66.0,-100.00,SW,220,0.0,0.0,80,-99.99,,,-99.99,,2013-05-20 15:42:00,
2013-05-20 10:53:00,72.0,65.0,-100.00,South,175,0.0,0.0,77,-99.99,,,-99.99,,2013-05-20 15:53:00,
2013-05-20 11:03:00,72.0,65.0,-100.00,South,175,0.0,0.0,77,-99.99,,,-99.99,,2013-05-20 16:03:00,
2013-05-20 11:12:00,72.0,64.0,-100.00,South,185,0.0,0.0,76,-99.99,,,-99.99,,2013-05-20 16:12:00,
2013-05-20 11:22:00,73.0,63.0,-100.00,SW,220,0.0,0.0,71,-99.99,,,-99.99,,2013-05-20 16:22:00,
2013-05-20 11:33:00,73.0,63.0,-100.00,SW,220,0.0,0.0,71,-99.99,,,-99.99,,2013-05-20 16:33:00,
2013-05-20 11:42:00,74.0,64.0,-100.00,SW,225,0.0,0.0,69,-99.99,,,-99.99,,2013-05-20 16:42:00,
2013-05-20 11:53:00,76.0,64.0,-100.00,SSW,210,0.0,0.0,67,-99.99,,,-99.99,,2013-05-20 16:53:00,
2013-05-20 12:02:00,76.0,64.0,-100.00,SSW,210,0.0,0.0,67,-99.99,,,-99.99,,2013-05-20 17:02:00,
2013-05-20 12:12:00,76.0,64.0,-100.00,SSW,210,0.0,0.0,67,-99.99,,,-99.99,,2013-05-20 17:12:00,
2013-05-20 12:22:00,76.0,63.0,-100.00,SW,220,0.0,0.0,65,-99.99,,,-99.99,,2013-05-20 17:22:00,
2013-05-20 12:33:00,76.0,63.0,-100.00,SW,220,0.0,0.0,65,-99.99,,,-99.99,,2013-05-20 17:33:00,
2013-05-20 12:45:00,76.0,63.0,-100.00,WSW,240,0.0,0.0,64,-99.99,,,-99.99,,2013-05-20 17:45:00,
2013-05-20 12:53:00,77.0,63.0,-100.00,WSW,250,0.0,0.0,61,-99.99,,,-99.99,,2013-05-20 17:53:00,
2013-05-20 13:02:00,77.0,63.0,-100.00,WSW,250,0.0,0.0,61,-99.99,,,-99.99,,2013-05-20 18:02:00,
2013-05-20 13:12:00,78.0,61.0,-100.00,SW,215,0.0,0.0,57,-99.99,,,-99.99,,2013-05-20 18:12:00,
2013-05-20 13:23:00,78.0,63.0,-100.00,South,185,0.0,0.0,60,-99.99,,,-99.99,,2013-05-20 18:23:00,
2013-05-20 13:32:00,78.0,63.0,-100.00,South,185,0.0,0.0,60,-99.99,,,-99.99,,2013-05-20 18:32:00,
2013-05-20 13:42:00,76.0,62.0,-100.00,WSW,245,0.0,0.0,62,-99.99,,,-99.99,,2013-05-20 18:42:00,
2013-05-20 13:55:00,75.0,62.0,-100.00,North,-999,-999.0,-999.0,64,-99.99,,,-99.99,,2013-05-20 18:55:00,
2013-05-20 14:04:00,75.0,62.0,-100.00,North,-999,-999.0,-999.0,64,-99.99,,,-99.99,,2013-05-20 19:04:00,
2013-05-20 14:11:00,73.0,63.0,-100.00,SSW,205,0.0,0.0,70,-99.99,,,-99.99,,2013-05-20 19:11:00,
2013-05-20 14:21:00,73.0,63.0,-100.00,South,185,0.0,0.0,69,-99.99,,,-99.99,,2013-05-20 19:21:00,
2013-05-20 14:32:00,73.0,63.0,-100.00,South,185,0.0,0.0,69,-99.99,,,-99.99,,2013-05-20 19:32:00,
2013-05-20 14:41:00,73.0,63.0,-100.00,South,185,0.0,0.0,69,-99.99,,,-99.99,,2013-05-20 19:41:00,
2013-05-20 14:52:00,76.0,65.0,-100.00,SSE,160,0.0,0.0,68,-99.99,,,-99.99,,2013-05-20 19:52:00,
2013-05-20 15:01:00,76.0,65.0,-100.00,SSE,160,0.0,0.0,68,-99.99,,,-99.99,,2013-05-20 20:01:00,
2013-05-20 15:12:00,78.0,66.0,-100.00,South,170,0.0,0.0,67,-99.99,,,-99.99,,2013-05-20 20:12:00,
2013-05-20 15:21:00,78.0,65.0,-100.00,SSW,195,0.0,0.0,65,-99.99,,,-99.99,,2013-05-20 20:21:00,
2013-05-20 15:32:00,78.0,65.0,-100.00,SSW,195,0.0,0.0,65,-99.99,,,-99.99,,2013-05-20 20:32:00,
2013-05-20 15:42:00,79.0,67.0,-100.00,SSW,195,0.0,0.0,66,-99.99,,,-99.99,,2013-05-20 20:42:00,
2013-05-20 15:52:00,80.0,67.0,-100.00,SW,230,0.0,0.0,64,-99.99,,,-99.99,,2013-05-20 20:52:00,
2013-05-20 16:01:00,80.0,67.0,-100.00,SW,230,0.0,0.0,64,-99.99,,,-99.99,,2013-05-20 21:01:00,
2013-05-20 16:11:00,80.0,65.0,-100.00,SSW,200,0.0,0.0,60,-99.99,,,-99.99,,2013-05-20 21:11:00,
2013-05-20 16:21:00,81.0,65.0,-100.00,SW,225,0.0,0.0,60,-99.99,,,-99.99,,2013-05-20 21:21:00,
2013-05-20 16:33:00,81.0,65.0,-100.00,SW,225,0.0,0.0,60,-99.99,,,-99.99,,2013-05-20 21:33:00,
2013-05-20 16:43:00,81.0,65.0,-100.00,SW,225,0.0,0.0,60,-99.99,,,-99.99,,2013-05-20 21:43:00,
2013-05-20 16:53:00,81.0,63.0,-100.00,SW,215,0.0,0.0,54,-99.99,,,-99.99,,2013-05-20 21:53:00,
2013-05-20 17:02:00,81.0,63.0,-100.00,SW,215,0.0,0.0,54,-99.99,,,-99.99,,2013-05-20 22:02:00,
2013-05-20 17:12:00,82.0,63.0,-100.00,WSW,250,0.0,0.0,53,-99.99,,,-99.99,,2013-05-20 22:12:00,
2013-05-20 17:23:00,81.0,63.0,-100.00,SW,230,0.0,0.0,53,-99.99,,,-99.99,,2013-05-20 22:23:00,
2013-05-20 17:33:00,81.0,63.0,-100.00,SW,230,0.0,0.0,53,-99.99,,,-99.99,,2013-05-20 22:33:00,
2013-05-20 17:42:00,81.0,61.0,-100.00,SW,215,0.0,0.0,51,-99.99,,,-99.99,,2013-05-20 22:42:00,
2013-05-20 17:52:00,81.0,61.0,-100.00,South,170,0.0,0.0,51,-99.99,,,-99.99,,2013-05-20 22:52:00,
2013-05-20 18:03:00,81.0,61.0,-100.00,South,170,0.0,0.0,51,-99.99,,,-99.99,,2013-05-20 23:03:00,
2013-05-20 18:12:00,80.0,61.0,-100.00,SSW,195,0.0,0.0,51,-99.99,,,-99.99,,2013-05-20 23:12:00,
2013-05-20 18:22:00,80.0,62.0,-100.00,South,185,0.0,0.0,54,-99.99,,,-99.99,,2013-05-20 23:22:00,
2013-05-20 18:32:00,80.0,62.0,-100.00,South,185,0.0,0.0,54,-99.99,,,-99.99,,2013-05-20 23:32:00,
2013-05-20 18:42:00,79.0,62.0,-100.00,South,190,0.0,0.0,57,-99.99,,,-99.99,,2013-05-20 23:42:00,
2013-05-20 18:53:00,79.0,64.0,-100.00,South,180,0.0,0.0,60,-99.99,,,-99.99,,2013-05-20 23:53:00,
2013-05-20 19:01:00,79.0,64.0,-100.00,South,180,0.0,0.0,60,-99.99,,,-99.99,,2013-05-21 00:01:00,
2013-05-20 19:11:00,78.0,64.0,-100.00,South,180,0.0,0.0,63,-99.99,,,-99.99,,2013-05-21 00:11:00,
2013-05-20 19:21:00,78.0,65.0,-100.00,South,180,0.0,0.0,66,-99.99,,,-99.99,,2013-05-21 00:21:00,
2013-05-20 19:32:00,78.0,65.0,-100.00,South,180,0.0,0.0,66,-99.99,,,-99.99,,2013-05-21 00:32:00,
2013-05-20 19:42:00,77.0,66.0,-100.00,ESE,110,0.0,0.0,70,-99.99,,,-99.99,,2013-05-21 00:42:00,
2013-05-20 19:52:00,75.0,68.0,-100.00,SSE,150,0.0,0.0,77,-99.99,,,-99.99,,2013-05-21 00:52:00,
2013-05-20 20:01:00,75.0,68.0,-100.00,SSE,150,0.0,0.0,77,-99.99,,,-99.99,,2013-05-21 01:01:00,
2013-05-20 20:11:00,75.0,69.0,-100.00,South,185,0.0,0.0,82,-99.99,,,-99.99,,2013-05-21 01:11:00,
2013-05-20 20:22:00,73.0,71.0,-100.00,SSW,195,0.0,0.0,91,-99.99,,,-99.99,,2013-05-21 01:22:00,
2013-05-20 20:32:00,73.0,71.0,-100.00,SSW,195,0.0,0.0,91,-99.99,,,-99.99,,2013-05-21 01:32:00,
2013-05-20 20:42:00,72.0,71.0,-100.00,WNW,285,0.0,0.0,98,-99.99,,,-99.99,,2013-05-21 01:42:00,
2013-05-20 20:53:00,69.0,68.0,-100.00,WSW,250,0.0,0.0,99,-99.99,,,-99.99,,2013-05-21 01:53:00,
2013-05-20 21:02:00,69.0,68.0,-100.00,WSW,250,0.0,0.0,99,-99.99,,,-99.99,,2013-05-21 02:02:00,
2013-05-20 21:11:00,61.0,61.0,-100.00,WSW,240,0.0,0.0,99,-99.99,,,-99.99,,2013-05-21 02:11:00,
2013-05-20 21:21:00,62.0,61.0,-100.00,SE,145,0.0,0.0,99,-99.99,,,-99.99,,2013-05-21 02:21:00,
2013-05-20 21:32:00,62.0,61.0,-100.00,SE,145,0.0,0.0,99,-99.99,,,-99.99,,2013-05-21 02:32:00,
2013-05-20 21:42:00,62.0,62.0,-100.00,SSE,160,0.0,0.0,99,-99.99,,,-99.99,,2013-05-21 02:42:00,
2013-05-20 21:52:00,62.0,62.0,-100.00,SE,130,0.0,0.0,99,-99.99,,,-99.99,,2013-05-21 02:52:00,
2013-05-20 22:02:00,62.0,62.0,-100.00,SE,130,0.0,0.0,99,-99.99,,,-99.99,,2013-05-21 03:02:00,
2013-05-20 22:11:00,62.0,62.0,-100.00,South,170,0.0,0.0,99,-99.99,,,-99.99,,2013-05-21 03:11:00,
2013-05-20 22:21:00,62.0,62.0,-100.00,South,185,0.0,0.0,99,-99.99,,,-99.99,,2013-05-21 03:21:00,
2013-05-20 22:33:00,62.0,62.0,-100.00,South,185,0.0,0.0,99,-99.99,,,-99.99,,2013-05-21 03:33:00,
2013-05-20 22:43:00,62.0,62.0,-100.00,South,185,0.0,0.0,99,-99.99,,,-99.99,,2013-05-21 03:43:00,
2013-05-20 22:53:00,62.0,62.0,-100.00,South,180,0.0,0.0,99,-99.99,,,-99.99,,2013-05-21 03:53:00,
2013-05-20 23:03:00,62.0,62.0,-100.00,South,180,0.0,0.0,99,-99.99,,,-99.99,,2013-05-21 04:03:00,
2013-05-20 23:13:00,62.0,62.0,-100.00,SSE,160,0.0,0.0,99,-99.99,,,-99.99,,2013-05-21 04:13:00,
2013-05-20 23:23:00,62.0,62.0,-100.00,South,190,0.0,0.0,99,-99.99,,,-99.99,,2013-05-21 04:23:00,
2013-05-20 23:33:00,62.0,62.0,-100.00,South,185,0.0,0.0,99,-99.99,,,-99.99,,2013-05-21 04:33:00,
2013-05-20 23:42:00,62.0,62.0,-100.00,South,185,0.0,0.0,99,-99.99,,,-99.99,,2013-05-21 04:42:00,
2013-05-20 23:53:00,62.0,62.0,-100.00,South,175,0.0,0.0,99,-99.99,,,-99.99,,2013-05-21 04:53:00,